Hovedside
METAR-TAF:

METAR-TAF

Lufthavner :

Aalborg lufthavn

Aalborg, Danmark

breddegrad: 57-06N, lengdegrad: 009-51E, høyde over havet: 3 m

Gjeldene værobservasjon

Denne rapporten ble laget for 17 minutter siden, klokken 01:20 UTC
Vind 8 kt fra Nord-nordvest, skiftende mellom Nordvest og Nord-nordøst
Temperatur 5°C
Luftfuktighet 65%
Trykk 1013 hPa
Sikt 10 km eller mer

METAR: EKYT 110120Z AUTO 34008KT 310V020 9999 BKN038/// 05/M01 Q1013

Tid: 02:37 (01:37 UTC)

Varsel

Denne rapporten ble laget for 2 timer og 30 minutter siden, klokken 23:07 UTC
Varsel gyldig fra 11. klokken 00 UTC til 11. klokken 24 UTC
Vind 10 kt fra Nord-nordvest
Sikt 10 km eller mer
Brutte skyer i en høyde av 5000 ft
Blir
fra 11. klokken 03 UTC til 11. klokken 06 UTC
Vind 10 kt fra Nord-nordøst

TAF: EKYT 102307Z 1100/1124 34010KT 9999 BKN050 BECMG 1103/1106 02010KT

Værobservasjoner og værvarsel for over 4000 flyplasser (METAR- og TAF-rapporter).

Tilgjengelige stasjoner er representert av de røde og gule prikkene på kartet.

Hold musepekeren over prikken for å se navnet på stasjonen.

Klikk så for å se værobservasjoner og -varsler.

For å forandre kartet kan du klikke på den grønne knappen med svart kryss for å zoome inn, på den grønne knappen med strek for å zoome ut, eller på de grønne pilene for å se tilstøtende kart.


METAR-TAF: